Time;durP1;ratioP1;P1;durP2;ratioP2;P2;SDS_P1;SDS_P2;PMS_P1;PMS_P2;Temp;Humidity;BMP_temperature;BMP_pressure;BME280_temperature;BME280_humidity;BME280_pressure;Samples;Min_cycle;Max_cycle;Signal;HPM_P1;HPM_P2
2023/11/25 00:00:26;;;;;;;0.52;0.52;;;;;;;20.29;39.69;101015.91;4997301;28;20056;-71
2023/11/25 00:02:53;;;;;;;1.33;0.80;;;;;;;20.27;39.75;101004.69;5048812;28;20035;-71
2023/11/25 00:05:19;;;;;;;1.10;0.73;;;;;;;20.30;39.52;101007.81;5009379;28;20132;-70
2023/11/25 00:07:45;;;;;;;0.90;0.60;;;;;;;20.32;39.53;101008.47;5059392;28;20049;-70
2023/11/25 00:10:12;;;;;;;0.63;0.35;;;;;;;20.31;39.60;101021.88;5011369;28;20057;-70
2023/11/25 00:12:37;;;;;;;0.55;0.52;;;;;;;20.29;39.62;101014.13;5045144;28;20386;-71
2023/11/25 00:15:03;;;;;;;0.88;0.60;;;;;;;20.31;39.54;101014.75;5009572;28;20040;-71
2023/11/25 00:17:30;;;;;;;1.95;0.82;;;;;;;20.33;39.54;101014.56;5045925;28;20041;-71
2023/11/25 00:19:59;;;;;;;1.13;1.00;;;;;;;20.30;39.37;101007.81;5010942;28;20052;-70
2023/11/25 00:22:25;;;;;;;1.07;0.73;;;;;;;20.30;39.68;101007.00;5062291;28;20158;-70
2023/11/25 00:24:52;;;;;;;1.33;0.80;;;;;;;20.20;39.59;100994.84;5007396;28;22132;-71
2023/11/25 00:27:18;;;;;;;0.93;0.77;;;;;;;20.30;39.53;100999.88;5064053;28;20062;-70
2023/11/25 00:29:44;;;;;;;0.93;0.70;;;;;;;20.28;39.56;101001.03;5049219;28;20032;-70
2023/11/25 00:32:10;;;;;;;1.08;0.60;;;;;;;20.29;39.63;101007.97;5043410;28;20602;-71
2023/11/25 00:34:36;;;;;;;2.53;0.90;;;;;;;20.26;39.73;101005.69;4971687;28;20046;-71
2023/11/25 00:37:03;;;;;;;1.10;0.65;;;;;;;20.25;39.66;101004.06;5043143;28;20702;-71
2023/11/25 00:39:29;;;;;;;1.65;0.90;;;;;;;20.26;39.59;100998.56;5008266;28;20040;-71
2023/11/25 00:41:55;;;;;;;1.77;0.98;;;;;;;20.23;39.68;100997.13;5046694;28;20043;-71
2023/11/25 00:44:21;;;;;;;0.65;0.55;;;;;;;20.25;39.59;101009.34;5006928;28;20040;-70
2023/11/25 00:46:47;;;;;;;1.05;0.55;;;;;;;20.24;39.48;101011.16;5064099;28;20041;-70
2023/11/25 00:49:15;;;;;;;1.25;0.70;;;;;;;20.24;39.48;101016.44;5017246;28;20036;-70
2023/11/25 00:51:43;;;;;;;2.13;1.00;;;;;;;20.18;39.55;101002.13;5062200;28;20058;-70
2023/11/25 00:54:09;;;;;;;1.48;0.90;;;;;;;20.22;39.61;101005.22;5025326;28;20029;-70
2023/11/25 00:56:35;;;;;;;1.63;0.80;;;;;;;20.22;39.59;101015.81;5034208;28;20597;-70
2023/11/25 00:59:01;;;;;;;2.20;0.73;;;;;;;20.20;39.46;101008.06;5029017;28;20075;-70
2023/11/25 01:01:27;;;;;;;1.67;1.05;;;;;;;20.23;39.57;101012.97;5015021;28;20047;-70
2023/11/25 01:03:52;;;;;;;2.47;0.90;;;;;;;20.17;39.49;101004.94;5044079;28;20402;-70
2023/11/25 01:06:18;;;;;;;2.08;1.10;;;;;;;20.19;39.61;101018.81;5009006;28;20139;-70
2023/11/25 01:08:44;;;;;;;2.47;1.02;;;;;;;20.19;39.57;101027.56;5043062;28;20037;-70
2023/11/25 01:11:10;;;;;;;1.92;0.70;;;;;;;20.19;39.56;101024.09;5006243;28;20044;-69
2023/11/25 01:13:36;;;;;;;1.95;1.10;;;;;;;20.17;39.59;101019.00;5068605;28;20048;-69
2023/11/25 01:16:02;;;;;;;1.00;0.68;;;;;;;20.20;39.51;101023.09;4997506;28;20080;-69
2023/11/25 01:18:28;;;;;;;0.45;0.45;;;;;;;20.19;39.52;101030.22;5059595;28;20455;-69
2023/11/25 01:20:55;;;;;;;1.33;0.77;;;;;;;20.18;39.51;101033.03;4993929;28;20060;-69
2023/11/25 01:23:22;;;;;;;1.38;0.88;;;;;;;20.17;39.67;101021.63;5040247;28;20123;-69
2023/11/25 01:25:49;;;;;;;1.50;0.70;;;;;;;20.18;39.59;101018.00;4987265;28;20079;-69
2023/11/25 01:28:14;;;;;;;1.02;0.82;;;;;;;20.02;39.57;100994.31;5045899;28;20668;-69
2023/11/25 01:30:40;;;;;;;2.05;0.68;;;;;;;20.16;39.75;101013.88;5001798;28;20048;-69
2023/11/25 01:33:06;;;;;;;1.98;0.90;;;;;;;20.15;39.42;101020.16;5043867;28;20087;-69
2023/11/25 01:35:32;;;;;;;0.95;0.50;;;;;;;20.12;39.81;101026.63;4987718;28;20041;-69
2023/11/25 01:37:58;;;;;;;1.85;0.80;;;;;;;20.13;39.69;101033.56;5026415;28;20037;-69
2023/11/25 01:40:24;;;;;;;1.08;0.90;;;;;;;20.16;39.82;101022.63;5045052;28;20383;-69
2023/11/25 01:42:50;;;;;;;1.30;0.68;;;;;;;20.16;39.72;101032.38;4975486;28;20033;-69
2023/11/25 01:45:15;;;;;;;0.80;0.70;;;;;;;20.11;39.72;101032.94;5037979;28;20052;-69
2023/11/25 01:47:42;;;;;;;1.90;0.95;;;;;;;20.15;39.76;101033.38;4993381;28;20032;-69
2023/11/25 01:50:10;;;;;;;2.88;0.70;;;;;;;20.15;39.75;101033.38;5046485;28;20040;-69
2023/11/25 01:52:37;;;;;;;2.30;0.90;;;;;;;20.12;39.82;101037.22;4986308;28;20080;-69
2023/11/25 01:55:04;;;;;;;2.05;1.00;;;;;;;20.06;39.82;101031.78;5042548;28;20362;-69
2023/11/25 01:57:33;;;;;;;1.40;0.88;;;;;;;20.12;39.83;101049.63;4979539;28;20572;-69
2023/11/25 01:59:59;;;;;;;1.00;0.70;;;;;;;19.92;39.94;101009.56;5039501;28;20122;-69
2023/11/25 02:02:34;;;;;;;2.90;0.93;;;;;;;20.02;39.77;101022.56;4954884;28;20128;-69
2023/11/25 02:05:01;;;;;;;1.30;0.75;;;;;;;20.15;39.70;101036.84;5037819;28;20037;-69
2023/11/25 02:07:26;;;;;;;1.50;0.80;;;;;;;20.12;39.87;101037.22;4970224;28;20036;-69
2023/11/25 02:09:52;;;;;;;1.00;0.90;;;;;;;20.13;39.72;101028.28;5035724;28;20041;-69
2023/11/25 02:12:18;;;;;;;1.38;0.63;;;;;;;20.09;39.79;101021.69;4986355;28;20045;-69
2023/11/25 02:14:43;;;;;;;2.75;1.08;;;;;;;20.11;39.72;101034.75;5045942;28;20048;-70
2023/11/25 02:17:09;;;;;;;1.08;0.73;;;;;;;20.11;39.82;101042.69;4990347;28;20066;-69
2023/11/25 02:19:36;;;;;;;0.77;0.60;;;;;;;19.98;39.92;100994.84;5044905;28;20051;-70
2023/11/25 02:22:05;;;;;;;1.67;0.88;;;;;;;20.10;39.86;101020.69;5006030;28;20113;-70
2023/11/25 02:24:30;;;;;;;1.73;0.80;;;;;;;20.05;39.83;101011.63;5027841;28;20133;-70
2023/11/25 02:26:58;;;;;;;1.60;0.90;;;;;;;20.08;39.85;101006.00;4991052;28;20032;-70
2023/11/25 02:29:24;;;;;;;1.40;0.73;;;;;;;20.09;39.88;100999.72;5045006;28;20144;-69
2023/11/25 02:31:49;;;;;;;2.45;0.93;;;;;;;20.09;39.90;101003.16;4986365;28;20473;-70
2023/11/25 02:34:15;;;;;;;1.58;0.68;;;;;;;20.11;39.88;101006.50;5047977;28;20064;-69
2023/11/25 02:36:41;;;;;;;2.17;0.77;;;;;;;20.10;39.89;100999.53;4974501;28;20628;-70
2023/11/25 02:39:07;;;;;;;1.15;0.80;;;;;;;20.08;39.89;100995.41;5046314;28;20045;-70
2023/11/25 02:41:34;;;;;;;1.98;0.80;;;;;;;20.10;39.87;101009.28;4996150;28;21287;-69
2023/11/25 02:43:59;;;;;;;1.00;0.65;;;;;;;20.06;39.76;100992.13;5038488;28;20326;-70
2023/11/25 02:46:25;;;;;;;1.38;0.73;;;;;;;20.07;39.76;100996.41;5022447;28;20043;-69
2023/11/25 02:48:51;;;;;;;0.95;0.80;;;;;;;20.09;39.89;100999.72;5045899;28;20044;-70
2023/11/25 02:51:16;;;;;;;1.38;0.80;;;;;;;20.07;39.89;101007.00;4988593;28;20041;-70
2023/11/25 02:53:42;;;;;;;0.93;0.70;;;;;;;20.07;40.01;100993.78;5041943;28;20052;-70
2023/11/25 02:56:08;;;;;;;1.83;0.95;;;;;;;20.06;39.98;100990.31;4991679;28;20701;-70
2023/11/25 02:58:35;;;;;;;1.25;0.77;;;;;;;20.07;40.00;100991.13;5044212;28;20163;-70
2023/11/25 03:01:01;;;;;;;0.80;0.75;;;;;;;20.06;40.02;101000.06;4988887;28;20133;-69
2023/11/25 03:03:27;;;;;;;2.30;1.15;;;;;;;20.06;40.08;100997.41;5047611;28;20069;-69
2023/11/25 03:05:53;;;;;;;1.75;0.75;;;;;;;20.00;40.29;100982.28;4991078;28;20029;-70
2023/11/25 03:08:22;;;;;;;2.60;0.90;;;;;;;20.02;40.14;100983.75;5043047;28;20052;-70
2023/11/25 03:10:50;;;;;;;0.98;0.43;;;;;;;20.05;40.06;100972.00;4992309;28;20052;-69
2023/11/25 03:13:16;;;;;;;2.25;0.82;;;;;;;19.97;40.08;100950.91;5042542;28;20172;-70
2023/11/25 03:15:42;;;;;;;0.45;0.40;;;;;;;20.06;39.97;100963.06;4992870;28;20044;-70
2023/11/25 03:18:08;;;;;;;0.88;0.52;;;;;;;20.05;39.94;100961.41;5025332;28;20170;-69
2023/11/25 03:20:34;;;;;;;0.65;0.57;;;;;;;20.05;40.02;100954.31;4981519;28;20071;-69
2023/11/25 03:23:06;;;;;;;2.88;1.20;;;;;;;20.02;40.08;100954.66;5050610;28;20831;-70
2023/11/25 03:25:32;;;;;;;1.00;0.70;;;;;;;20.05;40.10;100972.00;5015491;28;20202;-69
2023/11/25 03:27:58;;;;;;;1.15;0.70;;;;;;;20.03;40.00;100964.25;5071104;28;20036;-70
2023/11/25 03:30:26;;;;;;;1.10;0.68;;;;;;;20.04;40.05;100965.06;5013116;28;20221;-70
2023/11/25 03:32:51;;;;;;;1.90;1.10;;;;;;;19.82;40.15;100935.81;5051611;28;20051;-69
2023/11/25 03:35:17;;;;;;;3.55;0.70;;;;;;;20.01;40.02;100958.31;4998799;28;20730;-70
2023/11/25 03:37:43;;;;;;;1.00;0.50;;;;;;;20.03;39.95;100945.72;5071179;28;20502;-70
2023/11/25 03:40:13;;;;;;;1.45;0.70;;;;;;;20.03;40.04;100953.66;4980137;28;20036;-69
2023/11/25 03:42:40;;;;;;;1.70;0.80;;;;;;;19.99;39.95;100964.78;5043746;28;20033;-70
2023/11/25 03:45:07;;;;;;;0.88;0.63;;;;;;;19.96;40.00;100962.50;5012079;28;20029;-70
2023/11/25 03:47:33;;;;;;;1.92;0.70;;;;;;;20.01;40.12;100971.53;5055344;28;20122;-70
2023/11/25 03:49:58;;;;;;;1.35;0.75;;;;;;;19.98;40.08;100950.75;5012795;28;20640;-69
2023/11/25 03:52:24;;;;;;;1.33;0.70;;;;;;;20.00;40.36;100953.19;5075176;28;20759;-70
2023/11/25 03:54:50;;;;;;;1.52;0.70;;;;;;;19.96;40.17;100936.88;5041678;28;20037;-70
2023/11/25 03:57:16;;;;;;;1.35;0.50;;;;;;;20.01;40.13;100939.81;5048493;28;20119;-70
2023/11/25 03:59:41;;;;;;;0.82;0.68;;;;;;;19.83;40.14;100921.63;5014425;28;20044;-70
2023/11/25 04:02:08;;;;;;;1.23;0.63;;;;;;;20.01;40.04;100944.28;5041078;28;20040;-69
2023/11/25 04:04:33;;;;;;;0.95;0.65;;;;;;;19.99;40.17;100939.16;5009724;28;20059;-70
2023/11/25 04:06:59;;;;;;;1.08;0.60;;;;;;;19.99;40.13;100941.00;5047108;28;20652;-70
2023/11/25 04:09:25;;;;;;;0.68;0.60;;;;;;;19.94;40.11;100935.44;5013779;28;20043;-70
2023/11/25 04:11:51;;;;;;;0.90;0.40;;;;;;;19.90;40.15;100933.09;5047313;28;20859;-70
2023/11/25 04:14:17;;;;;;;1.60;1.00;;;;;;;19.95;40.18;100937.88;4988357;28;20048;-70
2023/11/25 04:16:43;;;;;;;1.17;0.82;;;;;;;19.97;40.22;100943.00;5067400;28;20082;-69
2023/11/25 04:19:09;;;;;;;1.17;0.57;;;;;;;19.96;40.20;100933.41;4987857;28;20048;-70
2023/11/25 04:21:45;;;;;;;1.83;1.00;;;;;;;19.98;40.18;100934.06;5058680;28;20051;-69
2023/11/25 04:24:11;;;;;;;1.80;1.00;;;;;;;19.98;40.19;100929.59;5007662;28;20041;-69
2023/11/25 04:26:40;;;;;;;1.02;0.82;;;;;;;19.92;40.53;100919.72;5060670;28;20085;-70
2023/11/25 04:29:06;;;;;;;0.82;0.50;;;;;;;19.97;40.26;100932.41;5008693;28;20768;-69
2023/11/25 04:31:32;;;;;;;1.35;0.85;;;;;;;19.97;40.20;100927.94;5060253;28;20044;-69
2023/11/25 04:33:57;;;;;;;0.77;0.45;;;;;;;19.96;40.28;100928.13;5008855;28;20036;-70
2023/11/25 04:36:26;;;;;;;1.55;0.90;;;;;;;19.88;40.07;100911.31;5062782;28;20048;-69
2023/11/25 04:38:53;;;;;;;1.70;0.60;;;;;;;19.96;40.23;100909.63;5010047;28;21821;-70
2023/11/25 04:41:19;;;;;;;0.77;0.77;;;;;;;19.96;40.18;100909.63;5061102;28;20071;-70
2023/11/25 04:43:44;;;;;;;1.05;0.70;;;;;;;19.91;40.24;100903.03;5012266;28;20124;-70
2023/11/25 04:46:11;;;;;;;1.52;0.70;;;;;;;19.95;40.37;100918.56;5058637;28;20661;-70
2023/11/25 04:48:37;;;;;;;0.95;0.68;;;;;;;19.91;40.20;100903.03;5034355;28;20040;-69
2023/11/25 04:51:03;;;;;;;0.98;0.60;;;;;;;19.92;40.30;100896.75;5020912;28;20548;-70
2023/11/25 04:53:28;;;;;;;2.42;0.68;;;;;;;19.95;40.23;100916.75;5052431;28;20112;-69
2023/11/25 04:55:54;;;;;;;1.73;0.47;;;;;;;19.94;40.27;100923.03;5022965;28;20120;-69
2023/11/25 04:58:19;;;;;;;1.75;1.05;;;;;;;19.95;40.21;100919.38;5064026;28;20048;-69
2023/11/25 05:00:46;;;;;;;1.40;0.63;;;;;;;19.95;40.28;100924.66;5012182;28;20045;-70
2023/11/25 05:03:12;;;;;;;1.35;0.77;;;;;;;19.89;40.25;100920.06;5046776;28;20056;-70
2023/11/25 05:05:38;;;;;;;0.90;0.63;;;;;;;19.91;40.25;100924.19;5054974;28;20035;-69
2023/11/25 05:08:06;;;;;;;1.67;0.73;;;;;;;19.93;40.32;100924.03;5061089;28;20101;-70
2023/11/25 05:10:32;;;;;;;1.27;0.60;;;;;;;19.92;40.20;100923.19;5006360;28;20129;-69
2023/11/25 05:12:57;;;;;;;0.93;0.43;;;;;;;19.87;40.13;100919.44;5047913;28;20780;-69
2023/11/25 05:15:24;;;;;;;0.47;0.38;;;;;;;19.91;40.33;100937.41;5010072;28;20577;-70
2023/11/25 05:17:52;;;;;;;1.55;0.70;;;;;;;19.92;40.25;100936.41;5066971;28;20043;-70
2023/11/25 05:20:17;;;;;;;0.88;0.50;;;;;;;19.88;40.24;100927.19;5009563;28;20573;-70
2023/11/25 05:22:43;;;;;;;1.38;0.50;;;;;;;19.87;40.33;100920.25;5061882;28;20054;-70
2023/11/25 05:25:15;;;;;;;0.50;0.43;;;;;;;19.88;40.37;100916.59;5011722;28;20048;-70
2023/11/25 05:27:42;;;;;;;0.80;0.52;;;;;;;19.84;40.30;100904.75;5063244;28;20029;-69
2023/11/25 05:30:13;;;;;;;1.40;0.55;;;;;;;19.88;40.31;100898.13;5010445;28;20081;-70
2023/11/25 05:32:40;;;;;;;1.02;0.60;;;;;;;19.86;40.38;100900.13;5057385;28;20540;-69
2023/11/25 05:35:06;;;;;;;0.80;0.50;;;;;;;19.90;40.45;100904.03;5011429;28;20072;-69
2023/11/25 05:37:32;;;;;;;1.17;0.68;;;;;;;19.86;40.43;100894.81;5063983;28;20474;-69
2023/11/25 05:39:59;;;;;;;1.17;0.60;;;;;;;19.88;40.37;100882.25;5018467;28;20032;-70
2023/11/25 05:42:27;;;;;;;1.17;0.68;;;;;;;19.90;40.39;100884.72;5055147;28;20479;-69
2023/11/25 05:44:58;;;;;;;1.38;0.60;;;;;;;19.86;40.46;100876.34;5010285;28;20189;-70
2023/11/25 05:47:24;;;;;;;1.20;0.70;;;;;;;19.87;40.39;100875.31;5048942;28;20086;-69
2023/11/25 05:49:49;;;;;;;0.60;0.60;;;;;;;19.85;40.51;100866.75;5008778;28;20048;-70
2023/11/25 05:52:16;;;;;;;0.95;0.40;;;;;;;19.87;40.35;100866.59;5051326;28;20032;-70
2023/11/25 05:54:42;;;;;;;0.63;0.50;;;;;;;19.84;40.45;100859.84;5012355;28;20537;-70
2023/11/25 05:57:08;;;;;;;1.58;0.90;;;;;;;19.85;40.30;100856.19;5069509;28;20025;-69
2023/11/25 05:59:35;;;;;;;0.55;0.40;;;;;;;19.90;40.47;100869.69;5016157;28;20032;-70
2023/11/25 06:02:01;;;;;;;0.73;0.47;;;;;;;19.91;40.45;100883.72;5068396;28;20036;-70
2023/11/25 06:04:26;;;;;;;1.63;0.47;;;;;;;19.90;40.50;100885.53;5005037;28;20581;-70
2023/11/25 06:06:52;;;;;;;0.50;0.40;;;;;;;19.90;40.52;100876.78;5050530;28;20051;-70
2023/11/25 06:09:18;;;;;;;1.58;0.52;;;;;;;19.88;40.48;100869.03;4978631;28;20044;-69
2023/11/25 06:11:43;;;;;;;1.33;0.80;;;;;;;19.81;40.36;100851.44;5046913;28;20036;-70
2023/11/25 06:14:12;;;;;;;1.20;0.63;;;;;;;19.85;40.57;100848.25;5062860;28;20052;-69
2023/11/25 06:16:41;;;;;;;0.85;0.57;;;;;;;19.83;40.53;100839.69;5028021;28;20120;-70
2023/11/25 06:19:07;;;;;;;0.87;0.63;;;;;;;19.87;40.50;100840.16;5042684;28;20056;-70
2023/11/25 06:21:33;;;;;;;0.65;0.43;;;;;;;19.88;40.42;100845.25;4998673;28;20036;-69
2023/11/25 06:24:00;;;;;;;0.85;0.50;;;;;;;19.88;40.40;100842.63;5071421;28;20505;-70
2023/11/25 06:26:25;;;;;;;0.93;0.40;;;;;;;19.81;40.44;100841.69;4992486;28;20033;-70
2023/11/25 06:28:51;;;;;;;0.65;0.38;;;;;;;19.86;40.57;100886.91;5047719;28;20059;-69
2023/11/25 06:31:17;;;;;;;0.50;0.32;;;;;;;19.84;40.53;100875.69;5011841;28;20082;-70
2023/11/25 06:33:42;;;;;;;0.57;0.30;;;;;;;19.82;40.28;100868.94;5062534;28;20052;-70
2023/11/25 06:36:10;;;;;;;1.10;0.50;;;;;;;19.86;40.56;100894.81;5006383;28;20037;-70
2023/11/25 06:38:35;;;;;;;2.03;0.52;;;;;;;19.85;40.54;100879.97;5067586;28;20040;-70
2023/11/25 06:41:01;;;;;;;1.58;0.52;;;;;;;19.82;40.50;100871.59;5016340;28;20500;-70
2023/11/25 06:43:29;;;;;;;0.82;0.45;;;;;;;19.85;40.49;100873.88;5061330;28;20078;-70
2023/11/25 06:45:55;;;;;;;0.82;0.40;;;;;;;19.87;40.31;100856.84;5012913;28;20024;-70
2023/11/25 06:48:24;;;;;;;0.90;0.43;;;;;;;19.87;40.63;100848.09;5064872;28;20078;-70
2023/11/25 06:50:50;;;;;;;0.70;0.37;;;;;;;19.87;40.58;100840.16;5016939;28;20075;-70
2023/11/25 06:53:16;;;;;;;1.77;1.00;;;;;;;19.83;40.57;100820.38;5072018;28;20462;-70
2023/11/25 06:55:41;;;;;;;1.38;0.55;;;;;;;19.86;40.56;100827.94;4995330;28;20376;-70
2023/11/25 06:58:18;;;;;;;1.05;0.57;;;;;;;19.85;40.55;100852.72;5064031;28;20053;-69
2023/11/25 07:00:44;;;;;;;1.42;0.60;;;;;;;19.88;40.54;100884.91;5008731;28;20119;-70
2023/11/25 07:03:11;;;;;;;0.60;0.60;;;;;;;19.81;40.60;100902.47;5071063;28;20402;-70
2023/11/25 07:05:37;;;;;;;0.65;0.50;;;;;;;19.87;40.57;100911.50;4998015;28;20036;-70
2023/11/25 07:08:03;;;;;;;0.93;0.52;;;;;;;19.79;40.56;100867.47;5041314;28;20114;-70
2023/11/25 07:10:35;;;;;;;0.45;0.40;;;;;;;19.86;40.62;100863.13;5006716;28;20035;-70
2023/11/25 07:13:09;;;;;;;0.98;0.40;;;;;;;19.82;40.62;100847.81;5064486;28;20085;-70
2023/11/25 07:15:35;;;;;;;1.13;0.55;;;;;;;19.87;40.58;100853.38;5011068;28;20040;-70
2023/11/25 07:18:03;;;;;;;1.27;0.40;;;;;;;20.13;40.02;100845.03;5051953;28;20037;-70
2023/11/25 07:20:28;;;;;;;0.93;0.45;;;;;;;20.84;38.85;100875.34;5046699;28;20055;-70
2023/11/25 07:22:54;;;;;;;1.55;0.70;;;;;;;21.29;38.18;100873.41;5012139;28;20766;-70
2023/11/25 07:25:20;;;;;;;1.95;0.63;;;;;;;21.41;37.67;100874.56;5067634;28;20036;-71
2023/11/25 07:27:46;;;;;;;1.60;0.88;;;;;;;21.43;37.98;100864.59;5021081;28;20074;-70
2023/11/25 07:30:14;;;;;;;0.93;0.50;;;;;;;21.37;37.82;100875.97;5071009;28;20968;-70
2023/11/25 07:32:40;;;;;;;1.50;0.60;;;;;;;21.29;38.16;100868.13;5018249;28;20056;-70
2023/11/25 07:35:07;;;;;;;0.93;0.45;;;;;;;21.17;38.28;100843.09;5069841;28;20655;-70
2023/11/25 07:37:37;;;;;;;0.57;0.40;;;;;;;21.15;38.63;100866.28;5005747;28;20037;-70
2023/11/25 07:40:12;;;;;;;1.58;0.77;;;;;;;21.02;38.79;100873.09;5063185;28;20562;-70
2023/11/25 07:42:37;;;;;;;1.50;0.52;;;;;;;20.92;39.01;100875.22;5016478;28;20036;-70
2023/11/25 07:45:09;;;;;;;1.30;0.50;;;;;;;20.90;39.07;100879.06;5062109;28;20137;-70
2023/11/25 07:47:34;;;;;;;1.27;0.60;;;;;;;20.84;39.34;100869.22;5017164;28;20733;-69
2023/11/25 07:50:00;;;;;;;0.50;0.50;;;;;;;20.78;39.19;100868.09;5067500;28;20040;-69
2023/11/25 07:52:25;;;;;;;0.60;0.52;;;;;;;20.69;39.62;100854.19;5014391;28;20082;-70
2023/11/25 07:54:51;;;;;;;1.70;0.60;;;;;;;20.65;39.61;100858.19;5065970;28;20399;-70
2023/11/25 07:57:17;;;;;;;0.82;0.65;;;;;;;20.61;39.75;100861.38;5011547;28;20040;-70
2023/11/25 07:59:43;;;;;;;2.25;0.95;;;;;;;20.62;39.73;100857.72;5056439;28;20747;-70
2023/11/25 08:02:09;;;;;;;1.10;0.50;;;;;;;20.59;39.75;100852.81;4994379;28;20040;-69
2023/11/25 08:04:34;;;;;;;0.82;0.20;;;;;;;20.58;39.79;100857.28;5054592;28;20075;-70
2023/11/25 08:07:00;;;;;;;0.70;0.50;;;;;;;20.34;39.96;100831.91;5004619;28;20067;-70
2023/11/25 08:09:26;;;;;;;0.85;0.65;;;;;;;20.45;39.95;100854.44;5065624;28;20457;-69
2023/11/25 08:11:52;;;;;;;0.73;0.55;;;;;;;20.49;40.09;100866.31;5007569;28;20064;-70
2023/11/25 08:14:17;;;;;;;1.10;0.57;;;;;;;20.45;40.09;100859.75;5043245;28;20678;-69
2023/11/25 08:16:43;;;;;;;1.25;0.80;;;;;;;20.43;40.12;100859.91;5003336;28;20291;-69
2023/11/25 08:19:09;;;;;;;0.85;0.50;;;;;;;20.40;40.08;100859.44;5066655;28;20381;-69
2023/11/25 08:21:34;;;;;;;0.93;0.60;;;;;;;20.36;40.11;100847.59;5006076;28;20039;-69
2023/11/25 08:24:00;;;;;;;1.35;0.68;;;;;;;20.40;40.14;100856.78;5062543;28;20149;-69
2023/11/25 08:26:25;;;;;;;0.93;0.50;;;;;;;20.36;40.18;100860.81;5031866;28;20044;-69
2023/11/25 08:28:52;;;;;;;0.90;0.55;;;;;;;20.40;40.19;100862.09;5053383;28;20694;-69
2023/11/25 08:31:19;;;;;;;1.10;0.50;;;;;;;20.38;40.23;100861.44;5010693;28;20040;-69
2023/11/25 08:33:44;;;;;;;1.63;0.70;;;;;;;20.29;40.04;100855.44;5056505;28;20718;-70
2023/11/25 08:36:11;;;;;;;2.25;0.60;;;;;;;20.33;40.20;100859.38;5008314;28;20049;-69
2023/11/25 08:38:38;;;;;;;0.95;0.73;;;;;;;20.32;40.17;100852.44;5060917;28;20052;-69
2023/11/25 08:41:06;;;;;;;1.10;0.63;;;;;;;20.36;40.09;100853.69;5011953;28;20451;-68
2023/11/25 08:43:40;;;;;;;2.13;0.88;;;;;;;20.34;40.00;100846.97;5066370;28;20032;-69
2023/11/25 08:46:06;;;;;;;0.80;0.50;;;;;;;20.27;39.87;100844.19;5000713;28;20071;-69
2023/11/25 08:48:32;;;;;;;0.98;0.68;;;;;;;20.31;39.98;100850.78;5061700;28;20055;-69
2023/11/25 08:50:57;;;;;;;1.40;0.52;;;;;;;20.38;39.83;100869.38;5011846;28;20036;-69
2023/11/25 08:53:23;;;;;;;0.75;0.40;;;;;;;20.36;39.98;100859.00;5068728;28;20225;-69
2023/11/25 08:55:49;;;;;;;0.65;0.40;;;;;;;20.36;40.03;100852.88;4994888;28;20393;-69
2023/11/25 08:58:15;;;;;;;1.25;0.60;;;;;;;20.37;40.05;100858.00;5047029;28;20032;-69
2023/11/25 09:00:41;;;;;;;0.90;0.65;;;;;;;20.42;39.83;100860.94;5010199;28;21804;-69
2023/11/25 09:03:08;;;;;;;0.52;0.35;;;;;;;20.52;39.86;100863.31;5063485;28;20055;-70
2023/11/25 09:05:36;;;;;;;2.03;0.50;;;;;;;20.46;39.73;100850.81;5013992;28;20039;-69
2023/11/25 09:08:06;;;;;;;0.63;0.50;;;;;;;20.46;39.63;100846.31;5055876;28;20121;-69
2023/11/25 09:10:34;;;;;;;1.27;0.70;;;;;;;20.48;39.79;100860.22;4988956;28;20046;-69
2023/11/25 09:13:00;;;;;;;2.53;0.90;;;;;;;20.47;39.74;100861.22;5042828;28;20090;-69
2023/11/25 09:15:25;;;;;;;1.30;0.65;;;;;;;20.48;39.63;100860.22;5007780;28;20040;-69
2023/11/25 09:17:51;;;;;;;0.50;0.38;;;;;;;20.45;39.90;100868.50;5058691;28;20051;-69
2023/11/25 09:20:17;;;;;;;1.85;0.70;;;;;;;20.43;39.64;100873.16;5004957;28;20055;-68
2023/11/25 09:22:43;;;;;;;1.25;0.60;;;;;;;20.43;39.80;100878.44;5049532;28;20902;-69
2023/11/25 09:25:12;;;;;;;0.73;0.60;;;;;;;20.42;39.93;100887.38;5004894;28;20979;-69
2023/11/25 09:27:47;;;;;;;1.35;0.88;;;;;;;20.39;39.84;100881.59;5054570;28;20687;-69
2023/11/25 09:30:14;;;;;;;1.42;0.60;;;;;;;20.41;39.69;100885.75;5074772;28;20887;-69
2023/11/25 09:32:44;;;;;;;1.40;0.60;;;;;;;20.25;39.90;100874.47;5010995;28;20098;-69
2023/11/25 09:35:12;;;;;;;;;;;;;;;20.40;39.88;100888.53;5063234;28;20040;-69
2023/11/25 09:37:42;;;;;;;0.77;0.70;;;;;;;20.40;39.84;100899.94;5027771;28;20003;-69
2023/11/25 09:40:14;;;;;;;;;;;;;;;20.44;39.63;100890.66;5071346;28;20051;-69
2023/11/25 09:42:44;;;;;;;1.77;0.88;;;;;;;20.41;39.50;100885.75;5016362;28;19916;-69
2023/11/25 09:45:14;;;;;;;1.05;0.70;;;;;;;20.46;39.50;100882.53;5063617;28;20509;-69
2023/11/25 09:47:45;;;;;;;2.10;0.63;;;;;;;20.48;39.54;100885.84;5015413;28;20039;-69
2023/11/25 09:50:12;;;;;;;2.28;0.73;;;;;;;20.47;39.38;100879.75;5054929;28;20028;-69
2023/11/25 09:52:50;;;;;;;0.75;0.65;;;;;;;20.43;39.64;100872.31;5003289;28;20037;-69
2023/11/25 09:55:18;;;;;;;1.15;0.80;;;;;;;20.46;39.68;100879.91;5070103;28;20529;-69
2023/11/25 09:57:49;;;;;;;1.92;0.90;;;;;;;20.48;39.60;100885.84;4996854;28;20077;-69
2023/11/25 10:00:21;;;;;;;2.50;1.00;;;;;;;20.52;39.35;100893.22;5043847;28;20059;-69
2023/11/25 10:02:56;;;;;;;1.25;0.60;;;;;;;20.57;39.42;100883.91;4998265;28;20036;-69
2023/11/25 10:05:22;;;;;;;1.55;0.73;;;;;;;20.55;39.30;100889.41;5062683;28;20064;-69
2023/11/25 10:07:48;;;;;;;0.90;0.50;;;;;;;20.56;39.38;100884.94;5014806;28;20036;-70
2023/11/25 10:10:16;;;;;;;1.58;0.60;;;;;;;20.53;39.35;100886.13;5048662;28;20047;-70
2023/11/25 10:12:42;;;;;;;1.13;0.57;;;;;;;20.51;39.33;100875.72;4994368;28;20058;-69
2023/11/25 10:15:10;;;;;;;1.45;0.80;;;;;;;20.43;39.48;100870.50;5064518;28;20383;-69
2023/11/25 10:17:36;;;;;;;1.02;0.45;;;;;;;20.49;39.58;100885.66;5010961;28;20040;-69
2023/11/25 10:20:09;;;;;;;1.13;0.52;;;;;;;20.45;39.47;100880.91;5061286;28;20056;-71
2023/11/25 10:22:56;;;;;;;1.27;0.93;;;;;;;20.49;39.60;100882.19;5011743;28;20127;-71
2023/11/25 10:25:22;;;;;;;1.23;0.95;;;;;;;20.45;39.58;100871.13;5059556;28;20040;-72
2023/11/25 10:27:51;;;;;;;1.27;0.73;;;;;;;20.32;39.68;100862.19;5011443;28;20036;-72
2023/11/25 10:30:16;;;;;;;3.00;0.82;;;;;;;20.43;39.34;100867.03;5067740;28;20036;-72
2023/11/25 10:32:42;;;;;;;1.85;0.88;;;;;;;20.45;38.93;100887.00;5039932;28;20799;-74
2023/11/25 10:35:09;;;;;;;2.60;0.93;;;;;;;20.30;39.59;100882.72;5041880;28;20590;-72
2023/11/25 10:37:37;;;;;;;3.50;0.95;;;;;;;20.42;39.50;100878.63;5001925;28;20099;-70
2023/11/25 10:40:04;;;;;;;1.77;0.75;;;;;;;20.54;39.58;100892.22;5041724;28;20044;-70
2023/11/25 10:42:29;;;;;;;1.98;0.85;;;;;;;20.76;38.88;100892.13;5004335;28;20040;-70
2023/11/25 10:44:55;;;;;;;1.77;0.85;;;;;;;20.91;38.71;100899.22;5045374;28;20037;-70
2023/11/25 10:47:33;;;;;;;3.72;1.10;;;;;;;20.91;38.89;100901.88;4996408;28;20036;-70
2023/11/25 10:50:03;;;;;;;2.05;0.90;;;;;;;20.80;38.88;100892.56;5061014;28;20040;-70
2023/11/25 10:52:32;;;;;;;1.58;0.60;;;;;;;20.83;38.86;100904.63;5005934;28;20037;-70
2023/11/25 10:54:58;;;;;;;1.42;1.05;;;;;;;20.77;38.69;100890.28;5061081;28;20122;-70
2023/11/25 10:57:26;;;;;;;1.85;0.63;;;;;;;20.72;39.01;100882.09;5018213;28;20074;-70
2023/11/25 10:59:57;;;;;;;1.70;0.73;;;;;;;20.77;39.17;100899.03;5052826;28;20044;-70
2023/11/25 11:02:43;;;;;;;1.15;0.90;;;;;;;20.74;39.24;100895.97;5011967;28;20644;-70
2023/11/25 11:05:09;;;;;;;2.05;0.82;;;;;;;20.71;39.30;100905.09;5059895;28;20101;-70
2023/11/25 11:07:46;;;;;;;2.75;0.90;;;;;;;20.68;39.22;100897.53;5016378;28;20035;-70
2023/11/25 11:10:17;;;;;;;2.25;1.00;;;;;;;20.64;39.14;100896.22;5058697;28;20547;-70
2023/11/25 11:12:51;;;;;;;0.98;0.68;;;;;;;20.45;39.54;100884.38;5011072;28;20521;-70
2023/11/25 11:15:20;;;;;;;1.33;1.02;;;;;;;20.66;39.40;100909.28;5056178;28;20733;-70
2023/11/25 11:17:51;;;;;;;1.98;0.80;;;;;;;20.64;39.38;100919.22;5005533;28;20510;-70
2023/11/25 11:20:19;;;;;;;1.75;0.82;;;;;;;20.62;39.48;100906.16;5068073;28;20123;-70
2023/11/25 11:22:45;;;;;;;1.27;0.70;;;;;;;20.59;39.40;100900.44;5005346;28;20414;-70
2023/11/25 11:25:23;;;;;;;1.88;1.02;;;;;;;20.59;39.31;100901.25;5064936;28;20053;-70